Legacy — WDG4891 — position and weather

sailwx.info

Track history (hours):
 
Tides and Currents Weather Stations Pressure Air Temp Water Temp Dewpoint Dewpoint Depression Visibility Wind Speed Wind Dir Waves Ship Positions

Legacy

Owner: Enterprise Marine Services, LLC, San Antonio, TX. More information available from US FCC via Universal Licensing System and Coast Guard Vessel Documentation Center.

Last reported at 2017-Dec-14 07:04 UTC. Time now 2017-Dec-16 01:27 UTC.
Position N 29°23' W 094°47'.

Length 25 m; draft 3.2 m.

Type: . MMSI: 367541160.

Date/timePositionNaut miles runAvg speedWind from/ knotsBaromVisibWave heightAir tempDewpointWater temp
2017-Dec-14 07:04N 29°23' W 094°47'1 7.1
2017-Dec-14 06:54N 29°22' W 094°48'5 7.1
2017-Dec-14 06:15N 29°23' W 094°53'  
2017-Dec-11 14:20N 29°60' W 093°55'0 0.0
2017-Dec-11 13:51N 29°60' W 093°55'0 0.0
2017-Dec-11 13:30N 29°60' W 093°55'  
2017-Dec-07 12:51N 29°58' W 093°52'0 0.0
2017-Dec-07 12:28N 29°58' W 093°52'0 0.0
2017-Dec-07 12:00N 29°58' W 093°52'  
2017-Dec-04 10:30N 29°44' W 095°12'0 0.0
2017-Dec-04 09:09N 29°44' W 095°12'0 0.0
2017-Dec-04 08:56N 29°44' W 095°12'0 0.0
2017-Dec-04 08:30N 29°44' W 095°12'0 0.0
2017-Dec-04 08:00N 29°44' W 095°12'0 0.4
2017-Dec-04 07:23N 29°44' W 095°12'  
Track history (hours):
 
Tides and Currents Weather Stations Pressure Air Temp Water Temp Dewpoint Dewpoint Depression Visibility Wind Speed Wind Dir Waves Ship Positions

Legacy

Owner: Enterprise Marine Services, LLC, San Antonio, TX. More information available from US FCC via Universal Licensing System and Coast Guard Vessel Documentation Center.

Last reported at 2017-Dec-14 07:04 UTC. Time now 2017-Dec-16 01:27 UTC.
Position N 29°23' W 094°47'.

Length 25 m; draft 3.2 m.

Type: . MMSI: 367541160.

Date/timePositionNaut miles runAvg speedWind from/ knotsBaromVisibWave heightAir tempDewpointWater temp
2017-Dec-14 07:04N 29°23' W 094°47'1 7.1
2017-Dec-14 06:54N 29°22' W 094°48'5 7.1
2017-Dec-14 06:15N 29°23' W 094°53'  
2017-Dec-11 14:20N 29°60' W 093°55'0 0.0
2017-Dec-11 13:51N 29°60' W 093°55'0 0.0
2017-Dec-11 13:30N 29°60' W 093°55'  
2017-Dec-07 12:51N 29°58' W 093°52'0 0.0
2017-Dec-07 12:28N 29°58' W 093°52'0 0.0
2017-Dec-07 12:00N 29°58' W 093°52'  
2017-Dec-04 10:30N 29°44' W 095°12'0 0.0
2017-Dec-04 09:09N 29°44' W 095°12'0 0.0
2017-Dec-04 08:56N 29°44' W 095°12'0 0.0
2017-Dec-04 08:30N 29°44' W 095°12'0 0.0
2017-Dec-04 08:00N 29°44' W 095°12'0 0.4
2017-Dec-04 07:23N 29°44' W 095°12'  

Dump ship's entire track history